Time;durP1;ratioP1;P1;durP2;ratioP2;P2;SDS_P1;SDS_P2;PMS_P1;PMS_P2;Temp;Humidity;BMP_temperature;BMP_pressure;BME280_temperature;BME280_humidity;BME280_pressure;Samples;Min_cycle;Max_cycle;Signal;HPM_P1;HPM_P2
2021/05/29 00:00:49;;;;;;;4.18;3.10;;;;;;;11.93;67.19;102464.09;5136993;27;20068;-39
2021/05/29 00:03:15;;;;;;;4.22;3.13;;;;;;;11.98;67.04;102469.75;5136538;27;20023;-39
2021/05/29 00:05:41;;;;;;;4.05;2.85;;;;;;;11.91;67.17;102469.72;5137208;27;20161;-39
2021/05/29 00:08:07;;;;;;;;;;;;;;;12.05;66.01;102476.91;5137650;27;20031;-39
2021/05/29 00:10:33;;;;;;;4.65;2.90;;;;;;;11.95;67.52;102468.25;5136305;27;19919;-39
2021/05/29 00:12:58;;;;;;;3.58;2.70;;;;;;;11.84;67.82;102461.53;5136625;27;20019;-39
2021/05/29 00:15:24;;;;;;;6.03;2.92;;;;;;;11.84;68.00;102466.13;5136843;27;20084;-39
2021/05/29 00:17:49;;;;;;;3.63;2.60;;;;;;;11.84;68.00;102474.25;5136503;27;20031;-39
2021/05/29 00:20:14;;;;;;;3.00;2.50;;;;;;;11.89;68.11;102470.94;5136686;27;20065;-39
2021/05/29 00:22:40;;;;;;;4.63;2.70;;;;;;;11.85;67.83;102471.34;5136358;27;20034;-39
2021/05/29 00:25:06;;;;;;;3.38;3.08;;;;;;;11.75;68.46;102470.00;5136670;27;20309;-39
2021/05/29 00:27:31;;;;;;;5.25;2.90;;;;;;;11.74;68.42;102465.63;5136300;27;20485;-39
2021/05/29 00:29:57;;;;;;;4.97;3.07;;;;;;;11.62;68.63;102469.94;5136805;27;20059;-39
2021/05/29 00:32:22;;;;;;;3.20;2.77;;;;;;;11.60;68.62;102470.13;5135646;27;20077;-39
2021/05/29 00:34:47;;;;;;;3.07;2.73;;;;;;;11.58;69.07;102478.44;5136163;27;20280;-39
2021/05/29 00:37:13;;;;;;;4.03;3.20;;;;;;;11.56;69.25;102472.38;5135035;27;20122;-39
2021/05/29 00:39:38;;;;;;;4.00;3.00;;;;;;;11.54;68.69;102474.47;5136008;27;20054;-39
2021/05/29 00:42:04;;;;;;;3.87;2.80;;;;;;;11.62;69.27;102469.94;5136460;27;20042;-39
2021/05/29 00:44:46;;;;;;;5.95;3.38;;;;;;;11.58;69.30;102483.03;5135928;27;20034;-39
2021/05/29 00:47:12;;;;;;;3.30;3.00;;;;;;;11.50;69.69;102484.00;5136135;27;20102;-39
2021/05/29 00:49:37;;;;;;;3.67;3.33;;;;;;;11.50;69.88;102473.16;5136145;27;20441;-39
2021/05/29 00:52:03;;;;;;;5.30;3.30;;;;;;;11.45;69.96;102481.06;5135790;27;20406;-39
2021/05/29 00:54:28;;;;;;;3.33;2.92;;;;;;;11.40;70.47;102483.50;5136264;27;20023;-39
2021/05/29 00:56:53;;;;;;;3.67;3.10;;;;;;;11.41;70.42;102474.34;5135368;27;20486;-39
2021/05/29 00:59:19;;;;;;;3.77;3.23;;;;;;;11.39;70.32;102476.44;5136247;27;20034;-39
2021/05/29 01:01:45;;;;;;;4.20;3.38;;;;;;;11.40;70.40;102482.69;5135277;27;20076;-39
2021/05/29 01:04:10;;;;;;;4.85;3.75;;;;;;;11.18;70.48;102480.03;5135680;27;20463;-41
2021/05/29 01:06:36;;;;;;;4.43;3.83;;;;;;;11.22;70.86;102483.16;5135632;27;20027;-41
2021/05/29 01:09:01;;;;;;;3.95;3.33;;;;;;;11.20;71.16;102482.53;5134424;27;20092;-41
2021/05/29 01:11:27;;;;;;;6.05;3.05;;;;;;;11.25;71.36;102488.19;5135641;27;20027;-41
2021/05/29 01:13:57;;;;;;;4.03;3.27;;;;;;;11.24;71.20;102481.09;5135149;27;20027;-41
2021/05/29 01:19:04;;;;;;;3.70;3.28;;;;;;;11.15;70.89;102485.81;5135327;27;20031;-41
2021/05/29 01:21:30;;;;;;;8.05;3.90;;;;;;;11.06;72.00;102487.81;5135214;27;20039;-41
2021/05/29 01:23:55;;;;;;;4.70;3.50;;;;;;;11.07;71.77;102485.94;5135368;27;20042;-41
2021/05/29 01:26:22;;;;;;;5.90;4.00;;;;;;;11.06;71.84;102490.53;5134949;27;20031;-41
2021/05/29 01:28:54;;;;;;;5.50;3.63;;;;;;;10.91;72.36;102478.09;5135345;27;20038;-41
2021/05/29 01:31:19;;;;;;;4.28;3.53;;;;;;;10.80;72.69;102482.16;5135009;27;20057;-41
2021/05/29 01:33:45;;;;;;;4.45;3.97;;;;;;;10.86;73.11;102486.78;5135532;27;20023;-41
2021/05/29 01:36:11;;;;;;;5.40;4.13;;;;;;;10.77;72.87;102482.53;5135011;27;20478;-41
2021/05/29 01:38:38;;;;;;;;;;;;;;;10.93;71.76;102486.84;5135849;27;20019;-41
2021/05/29 01:41:14;;;;;;;5.18;3.85;;;;;;;10.77;72.66;102485.22;5134659;27;19907;-41
2021/05/29 01:43:45;;;;;;;5.10;4.10;;;;;;;10.71;73.62;102488.72;5134659;27;20023;-41
2021/05/29 01:46:14;;;;;;;6.95;4.05;;;;;;;10.66;74.22;102491.16;5134790;27;20110;-41
2021/05/29 01:48:43;;;;;;;4.68;3.72;;;;;;;10.65;73.78;102490.31;5134905;27;20092;-41
2021/05/29 01:51:10;;;;;;;4.78;4.00;;;;;;;10.63;74.40;102494.22;5134373;27;20428;-41
2021/05/29 01:53:36;;;;;;;5.15;4.03;;;;;;;10.56;74.08;102489.59;5133341;27;20027;-41
2021/05/29 01:56:01;;;;;;;6.10;4.38;;;;;;;10.57;73.63;102493.13;5135155;27;20038;-41
2021/05/29 01:58:27;;;;;;;5.32;4.10;;;;;;;10.57;74.53;102488.56;5135059;27;20023;-41
2021/05/29 02:00:52;;;;;;;4.57;3.67;;;;;;;10.51;74.89;102491.19;5134863;27;20031;-41
2021/05/29 02:03:18;;;;;;;4.38;3.80;;;;;;;10.51;75.03;102492.03;5134496;27;20023;-41
2021/05/29 02:05:44;;;;;;;4.20;3.80;;;;;;;10.48;74.51;102496.97;5134951;27;20050;-41
2021/05/29 02:08:11;;;;;;;4.80;3.92;;;;;;;10.44;74.36;102503.78;5134131;27;20532;-39
2021/05/29 02:10:41;;;;;;;6.20;4.28;;;;;;;10.41;74.41;102504.19;5134590;27;20067;-39
2021/05/29 02:13:10;;;;;;;4.32;3.80;;;;;;;10.40;74.75;102497.09;5134538;27;20116;-39
2021/05/29 02:15:38;;;;;;;7.13;4.28;;;;;;;10.31;74.56;102499.91;5133787;27;20406;-39
2021/05/29 02:18:06;;;;;;;4.22;3.80;;;;;;;10.39;74.83;102488.13;5134218;27;20118;-40
2021/05/29 02:20:35;;;;;;;4.38;3.97;;;;;;;10.23;74.81;102497.28;5134212;27;20035;-41
2021/05/29 02:23:01;;;;;;;7.40;4.20;;;;;;;10.25;75.61;102505.25;5133893;27;20027;-41
2021/05/29 02:25:26;;;;;;;;;;;;;;;10.45;73.16;102502.78;5135059;27;20050;-41
2021/05/29 02:27:51;;;;;;;5.67;4.00;;;;;;;10.28;74.86;102507.56;5134149;27;20350;-41
2021/05/29 02:30:17;;;;;;;4.97;4.20;;;;;;;10.22;75.25;102503.72;5134098;28;20741;-41
2021/05/29 02:32:42;;;;;;;5.85;4.13;;;;;;;10.26;74.95;102504.22;5134119;27;20059;-41
2021/05/29 02:35:08;;;;;;;5.43;4.03;;;;;;;10.21;75.51;102503.91;5134956;28;20019;-41
2021/05/29 02:37:33;;;;;;;5.85;4.63;;;;;;;10.14;75.21;102498.41;5134055;28;20475;-41
2021/05/29 02:39:59;;;;;;;4.63;4.00;;;;;;;10.13;75.59;102506.69;5134669;28;20031;-41
2021/05/29 02:42:24;;;;;;;4.90;4.40;;;;;;;10.10;75.45;102501.66;5134141;28;20027;-41
2021/05/29 02:44:49;;;;;;;6.57;4.73;;;;;;;10.04;75.77;102498.69;5134361;28;20023;-41
2021/05/29 02:47:15;;;;;;;6.13;4.03;;;;;;;10.11;74.92;102503.34;5133889;28;20383;-41
2021/05/29 02:49:40;;;;;;;5.23;4.00;;;;;;;10.05;75.18;102499.50;5133970;28;20019;-41
2021/05/29 02:52:05;;;;;;;8.47;4.23;;;;;;;9.93;75.67;102492.91;5133915;28;20431;-41
2021/05/29 02:54:31;;;;;;;7.80;4.77;;;;;;;9.90;75.77;102496.81;5133750;28;20320;-41
2021/05/29 02:56:56;;;;;;;4.33;3.93;;;;;;;9.92;75.28;102508.28;5133915;28;20031;-41
2021/05/29 02:59:21;;;;;;;5.00;4.50;;;;;;;9.79;75.34;102510.78;5134737;28;20569;-41
2021/05/29 03:01:47;;;;;;;4.63;3.70;;;;;;;9.80;76.19;102509.75;5133918;28;20489;-41
2021/05/29 03:04:12;;;;;;;5.07;4.40;;;;;;;9.72;76.04;102510.72;5133489;28;20023;-41
2021/05/29 03:06:38;;;;;;;6.03;4.97;;;;;;;9.70;76.15;102512.75;5133617;28;20118;-41
2021/05/29 03:09:04;;;;;;;5.90;4.53;;;;;;;9.62;76.79;102510.13;5133514;28;20098;-41
2021/05/29 03:11:42;;;;;;;6.72;5.03;;;;;;;9.65;76.49;102514.31;5134238;28;20118;-41
2021/05/29 03:14:07;;;;;;;4.93;4.43;;;;;;;9.66;76.71;102516.00;5133793;28;20080;-41
2021/05/29 03:16:33;;;;;;;5.45;4.95;;;;;;;9.59;76.56;102515.06;5134575;27;20027;-41
2021/05/29 03:18:58;;;;;;;6.60;5.33;;;;;;;9.57;77.19;102517.97;5134402;28;20020;-41
2021/05/29 03:21:24;;;;;;;7.10;4.93;;;;;;;9.63;77.15;102521.78;5133643;28;20150;-41
2021/05/29 03:23:49;;;;;;;6.03;4.93;;;;;;;9.64;77.98;102515.34;5133199;28;20023;-41
2021/05/29 03:26:14;;;;;;;6.67;5.53;;;;;;;9.71;77.62;102521.69;5134200;28;20026;-41
2021/05/29 03:28:40;;;;;;;7.40;5.77;;;;;;;9.70;77.61;102511.91;5135561;27;20034;-41
2021/05/29 03:31:05;;;;;;;6.43;5.70;;;;;;;9.75;77.68;102513.03;5138174;27;20114;-41
2021/05/29 03:33:30;;;;;;;7.30;6.03;;;;;;;9.72;77.82;102517.97;5136387;27;20039;-41
2021/05/29 03:35:56;;;;;;;6.00;5.40;;;;;;;9.71;78.40;102516.28;5137073;27;20080;-41
2021/05/29 03:38:21;;;;;;;7.80;6.00;;;;;;;9.68;77.81;102519.38;5137290;27;20035;-41
2021/05/29 03:40:46;;;;;;;7.20;6.17;;;;;;;9.65;77.73;102517.84;5138095;27;20027;-41
2021/05/29 03:43:13;;;;;;;7.13;5.80;;;;;;;9.69;77.85;102527.28;5137383;27;20034;-41
2021/05/29 03:45:38;;;;;;;8.65;6.22;;;;;;;9.64;77.88;102531.56;5137422;27;20062;-41
2021/05/29 03:48:04;;;;;;;7.07;6.37;;;;;;;9.69;78.33;102523.72;5137066;27;20475;-41
2021/05/29 03:50:29;;;;;;;7.60;6.38;;;;;;;9.66;78.71;102534.91;5137224;27;20462;-41
2021/05/29 03:52:55;;;;;;;9.17;6.83;;;;;;;9.60;78.15;102532.94;5137328;27;20451;-41
2021/05/29 03:55:21;;;;;;;9.20;6.23;;;;;;;9.64;78.53;102528.84;5137229;27;20351;-41
2021/05/29 03:57:49;;;;;;;12.02;6.88;;;;;;;9.50;78.60;102538.59;5136845;27;20027;-41
2021/05/29 04:00:21;;;;;;;9.43;7.25;;;;;;;9.48;78.71;102532.56;5137160;27;20023;-41
2021/05/29 04:02:48;;;;;;;7.63;5.90;;;;;;;9.54;78.18;102529.94;5136860;27;20023;-41
2021/05/29 04:05:15;;;;;;;8.63;6.63;;;;;;;9.59;78.30;102531.25;5136891;27;20047;-41
2021/05/29 04:07:40;;;;;;;8.48;6.95;;;;;;;9.58;78.49;102541.22;5135372;27;20027;-39
2021/05/29 04:10:11;;;;;;;7.50;6.70;;;;;;;9.50;78.76;102531.31;5137093;27;20118;-40
2021/05/29 04:12:38;;;;;;;10.43;6.70;;;;;;;9.58;78.48;102532.28;5136593;27;20106;-40
2021/05/29 04:15:05;;;;;;;9.02;6.75;;;;;;;9.63;78.63;102535.28;5136523;27;20023;-40
2021/05/29 04:17:30;;;;;;;8.38;7.05;;;;;;;9.53;78.59;102535.53;5137206;27;20037;-40
2021/05/29 04:19:56;;;;;;;7.43;6.63;;;;;;;9.64;78.73;102543.19;5136498;27;20031;-40
2021/05/29 04:22:21;;;;;;;7.50;6.73;;;;;;;9.63;78.24;102543.38;5136374;27;20110;-40
2021/05/29 04:24:49;;;;;;;9.45;6.65;;;;;;;9.58;78.73;102540.41;5136706;27;20027;-40
2021/05/29 04:27:15;;;;;;;9.35;6.68;;;;;;;9.61;78.68;102546.25;5136484;27;20424;-40
2021/05/29 04:29:40;;;;;;;10.15;6.88;;;;;;;9.62;79.02;102542.56;5136274;27;20027;-40
2021/05/29 04:32:07;;;;;;;8.40;7.27;;;;;;;9.71;78.93;102551.38;5136179;27;20027;-40
2021/05/29 04:34:32;;;;;;;8.95;6.80;;;;;;;9.77;78.75;102548.81;5135687;27;20419;-40
2021/05/29 04:36:57;;;;;;;9.37;7.47;;;;;;;9.86;79.00;102554.97;5135795;27;20031;-40
2021/05/29 04:39:23;;;;;;;8.10;6.93;;;;;;;9.97;79.46;102553.69;5135710;27;20019;-40
2021/05/29 04:41:48;;;;;;;8.83;7.73;;;;;;;10.00;77.62;102551.44;5136038;27;20033;-40
2021/05/29 04:44:13;;;;;;;8.50;7.53;;;;;;;10.12;78.56;102554.53;5136480;27;20034;-40
2021/05/29 04:46:39;;;;;;;9.80;6.87;;;;;;;10.25;77.86;102556.63;5136007;27;20042;-40
2021/05/29 04:49:06;;;;;;;8.00;6.55;;;;;;;10.31;77.53;102562.09;5135879;27;20068;-40
2021/05/29 04:51:32;;;;;;;7.45;6.13;;;;;;;10.47;77.30;102558.34;5135784;27;20026;-40
2021/05/29 04:53:57;;;;;;;7.78;6.60;;;;;;;10.57;76.53;102553.47;5135847;27;20039;-40
2021/05/29 04:56:22;;;;;;;7.60;6.77;;;;;;;10.66;77.18;102559.63;5135648;27;20538;-40
2021/05/29 04:58:48;;;;;;;7.28;5.88;;;;;;;10.68;74.63;102565.69;5135694;27;20479;-40
2021/05/29 05:01:13;;;;;;;9.47;6.80;;;;;;;10.72;75.59;102561.56;5136307;27;20054;-40
2021/05/29 05:03:39;;;;;;;7.20;6.40;;;;;;;10.82;76.22;102556.69;5135675;27;20382;-40
2021/05/29 05:06:05;;;;;;;;;;;;;;;11.05;75.25;102564.66;5136628;27;20051;-40
2021/05/29 05:08:31;;;;;;;10.07;6.38;;;;;;;11.07;73.93;102565.28;5135498;27;19922;-40
2021/05/29 05:10:57;;;;;;;9.18;6.13;;;;;;;11.12;73.95;102572.00;5135679;27;20035;-40
2021/05/29 05:13:24;;;;;;;8.18;6.28;;;;;;;11.26;75.21;102576.50;5135913;27;20031;-40
2021/05/29 05:15:50;;;;;;;8.35;6.45;;;;;;;11.17;73.52;102569.53;5135674;27;20129;-40
2021/05/29 05:18:15;;;;;;;11.10;6.20;;;;;;;11.23;73.34;102569.63;5135652;27;20395;-40
2021/05/29 05:20:42;;;;;;;7.03;5.70;;;;;;;11.23;72.12;102575.03;5135613;27;20034;-40
2021/05/29 05:23:07;;;;;;;6.47;5.70;;;;;;;11.33;74.29;102577.44;5135180;27;20042;-40
2021/05/29 05:25:33;;;;;;;6.80;5.97;;;;;;;11.45;72.54;102573.16;5136004;27;20027;-40
2021/05/29 05:27:59;;;;;;;6.07;5.43;;;;;;;11.52;72.72;102575.94;5135681;27;20295;-40
2021/05/29 05:30:25;;;;;;;8.77;6.32;;;;;;;11.60;71.84;102575.78;5135351;27;20375;-40
2021/05/29 05:32:51;;;;;;;8.90;5.90;;;;;;;11.68;71.85;102582.94;5135535;27;20023;-40
2021/05/29 05:35:17;;;;;;;7.13;5.18;;;;;;;11.79;71.94;102585.13;5134784;27;20470;-40
2021/05/29 05:37:43;;;;;;;6.95;5.88;;;;;;;11.67;70.36;102586.69;5134939;27;20162;-40
2021/05/29 05:40:09;;;;;;;6.00;5.10;;;;;;;11.59;71.08;102585.78;5135541;27;20023;-40
2021/05/29 05:42:35;;;;;;;;;;;;;;;11.77;70.71;102590.75;5135810;27;20102;-40
2021/05/29 05:45:03;;;;;;;7.25;6.07;;;;;;;11.74;69.86;102591.13;5135100;27;19975;-40
2021/05/29 05:47:29;;;;;;;9.63;6.18;;;;;;;11.68;69.49;102593.78;5134710;27;20023;-40
2021/05/29 05:49:54;;;;;;;6.67;5.33;;;;;;;11.76;69.27;102593.63;5133128;27;20046;-40
2021/05/29 05:52:19;;;;;;;6.60;5.10;;;;;;;11.85;69.35;102595.19;5134028;27;20315;-40
2021/05/29 05:54:45;;;;;;;6.97;5.83;;;;;;;11.94;69.66;102596.72;5134683;27;20547;-40
2021/05/29 05:57:10;;;;;;;8.70;5.50;;;;;;;12.06;70.05;102603.28;5135071;27;20023;-40
2021/05/29 05:59:35;;;;;;;6.80;5.50;;;;;;;12.21;69.87;102605.06;5135112;27;20030;-40
2021/05/29 06:02:01;;;;;;;8.23;4.90;;;;;;;12.33;68.90;102600.72;5133348;27;20038;-40
2021/05/29 06:04:26;;;;;;;6.70;5.43;;;;;;;12.44;70.80;102605.59;5134815;27;20344;-40
2021/05/29 06:06:52;;;;;;;7.57;5.70;;;;;;;12.44;67.77;102610.19;5134585;27;20257;-40
2021/05/29 06:09:17;;;;;;;5.88;5.22;;;;;;;12.41;67.75;102616.88;5134521;27;20470;-40
2021/05/29 06:11:44;;;;;;;6.57;5.50;;;;;;;12.59;69.29;102609.03;5134538;27;20050;-40
2021/05/29 06:19:21;;;;;;;6.22;4.85;;;;;;;12.86;67.91;102611.84;5134874;27;20041;-40
2021/05/29 06:21:52;;;;;;;6.45;5.07;;;;;;;12.86;66.37;102617.28;5133391;27;20474;-40
2021/05/29 06:24:20;;;;;;;6.78;4.90;;;;;;;12.94;67.65;102619.00;5134972;27;20023;-40
2021/05/29 06:26:47;;;;;;;6.85;4.97;;;;;;;12.96;65.54;102619.59;5134201;27;20075;-40
2021/05/29 06:29:12;;;;;;;5.40;4.57;;;;;;;13.05;66.93;102621.94;5134193;27;20070;-40
2021/05/29 06:31:38;;;;;;;5.60;4.67;;;;;;;13.14;66.87;102628.03;5134461;27;20055;-40
2021/05/29 06:34:03;;;;;;;6.15;5.15;;;;;;;13.25;66.81;102634.78;5133839;28;20023;-40
2021/05/29 06:36:32;;;;;;;5.78;5.00;;;;;;;13.19;65.63;102630.13;5134761;28;20031;-40
2021/05/29 06:38:59;;;;;;;5.50;4.53;;;;;;;13.30;65.60;102640.44;5134151;28;20046;-40
2021/05/29 06:41:24;;;;;;;;;;;;;;;13.44;66.16;102633.97;5134532;28;20030;-40
2021/05/29 06:43:50;;;;;;;5.93;4.47;;;;;;;13.50;66.88;102633.16;5134455;28;19907;-40
2021/05/29 06:46:17;;;;;;;6.40;4.63;;;;;;;13.52;65.34;102641.94;5134138;28;20325;-40
2021/05/29 06:48:42;;;;;;;8.18;5.07;;;;;;;13.58;64.98;102627.53;5134519;28;20033;-41
2021/05/29 06:51:10;;;;;;;5.57;4.20;;;;;;;13.60;64.11;102633.56;5133958;28;20106;-40
2021/05/29 06:53:45;;;;;;;5.60;4.22;;;;;;;13.64;64.92;102634.84;5134152;28;20031;-40
2021/05/29 06:58:54;;;;;;;7.15;4.47;;;;;;;13.74;63.10;102639.84;5134528;28;20038;-40
2021/05/29 07:01:25;;;;;;;4.80;4.00;;;;;;;13.84;64.11;102642.16;5134804;28;20409;-40
2021/05/29 07:03:51;;;;;;;5.18;3.80;;;;;;;13.91;63.67;102648.47;5137399;27;20273;-40
2021/05/29 07:06:18;;;;;;;5.93;4.03;;;;;;;13.97;62.99;102641.34;5139122;27;20126;-40
2021/05/29 07:08:43;;;;;;;;;;;;;;;14.07;62.44;102644.47;5138975;27;20062;-40
2021/05/29 07:11:09;;;;;;;4.43;3.20;;;;;;;14.03;62.17;102644.03;5137830;27;19958;-40
2021/05/29 07:13:35;;;;;;;4.53;3.70;;;;;;;14.06;61.74;102642.81;5137949;27;20277;-40
2021/05/29 07:16:01;;;;;;;4.85;3.65;;;;;;;14.10;62.10;102647.63;5138332;27;20113;-40
2021/05/29 07:18:30;;;;;;;4.18;3.42;;;;;;;14.15;61.93;102647.81;5137775;27;20491;-40
2021/05/29 07:20:56;;;;;;;4.85;4.05;;;;;;;14.21;62.28;102645.28;5138206;27;20031;-40
2021/05/29 07:23:22;;;;;;;6.03;4.05;;;;;;;14.27;61.61;102645.28;5136557;27;20477;-40
2021/05/29 07:25:48;;;;;;;6.13;3.78;;;;;;;14.33;62.06;102649.03;5137615;27;20027;-40
2021/05/29 07:28:15;;;;;;;6.80;4.60;;;;;;;14.29;60.05;102647.78;5137570;27;20459;-40
2021/05/29 07:30:40;;;;;;;5.60;3.70;;;;;;;14.36;61.72;102646.72;5137877;27;20023;-40
2021/05/29 07:33:06;;;;;;;6.30;4.60;;;;;;;14.48;62.08;102654.25;5137441;27;20421;-40
2021/05/29 07:35:31;;;;;;;5.70;4.65;;;;;;;14.48;61.82;102648.81;5138023;27;20712;-40
2021/05/29 07:37:57;;;;;;;6.63;4.07;;;;;;;14.58;61.57;102644.59;5137352;27;20023;-40
2021/05/29 07:40:23;;;;;;;4.47;4.07;;;;;;;14.70;62.94;102649.41;5137113;27;20056;-40
2021/05/29 07:42:49;;;;;;;5.03;3.78;;;;;;;14.75;60.30;102652.31;5137143;27;20049;-40
2021/05/29 07:45:15;;;;;;;4.35;3.80;;;;;;;14.87;62.31;102647.84;5137272;27;20110;-40
2021/05/29 07:47:40;;;;;;;5.10;4.28;;;;;;;14.94;61.60;102638.63;5137113;27;20464;-40
2021/05/29 07:50:07;;;;;;;6.22;4.57;;;;;;;15.04;60.62;102650.94;5137438;27;20026;-40
2021/05/29 07:52:32;;;;;;;6.68;4.22;;;;;;;15.16;60.39;102649.19;5136299;27;20076;-40
2021/05/29 07:54:58;;;;;;;5.50;4.53;;;;;;;15.04;59.77;102654.50;5137367;27;20027;-40
2021/05/29 07:57:23;;;;;;;6.63;4.23;;;;;;;15.15;60.84;102651.06;5136882;27;20027;-40
2021/05/29 07:59:48;;;;;;;5.18;4.18;;;;;;;15.14;60.40;102656.75;5137479;27;20032;-40
2021/05/29 08:02:14;;;;;;;6.60;5.23;;;;;;;15.19;60.63;102655.03;5136622;27;20050;-40
2021/05/29 08:04:40;;;;;;;5.65;4.50;;;;;;;15.28;61.21;102649.34;5137220;27;20047;-41
2021/05/29 08:07:05;;;;;;;7.10;5.25;;;;;;;15.28;60.99;102657.53;5136980;27;20027;-40
2021/05/29 08:09:31;;;;;;;6.15;5.47;;;;;;;15.40;61.33;102653.88;5136795;27;20394;-40
2021/05/29 08:11:56;;;;;;;6.70;5.60;;;;;;;15.48;60.14;102655.50;5136273;27;20030;-40
2021/05/29 08:14:21;;;;;;;5.85;4.88;;;;;;;15.59;59.68;102664.88;5135687;27;20023;-40
2021/05/29 08:16:47;;;;;;;7.63;5.60;;;;;;;15.60;59.97;102663.81;5136275;27;20024;-40
2021/05/29 08:19:14;;;;;;;6.38;5.13;;;;;;;15.55;59.40;102661.72;5137295;27;20023;-40
2021/05/29 08:21:41;;;;;;;8.13;5.07;;;;;;;15.54;58.45;102665.53;5136695;27;20043;-40
2021/05/29 08:24:07;;;;;;;8.60;5.40;;;;;;;15.70;59.33;102656.00;5136694;27;20421;-40
2021/05/29 08:26:35;;;;;;;7.55;5.00;;;;;;;15.69;58.59;102660.63;5136888;27;20034;-40
2021/05/29 08:29:00;;;;;;;7.25;5.80;;;;;;;15.81;59.50;102665.34;5135982;27;20433;-40
2021/05/29 08:31:26;;;;;;;7.53;5.53;;;;;;;15.89;58.69;102662.34;5136734;27;20020;-40
2021/05/29 08:33:51;;;;;;;8.13;5.60;;;;;;;15.93;58.99;102666.31;5136224;27;20032;-40
2021/05/29 08:36:16;;;;;;;7.10;5.73;;;;;;;16.14;60.04;102665.91;5136814;27;20241;-40
2021/05/29 08:38:44;;;;;;;9.13;5.35;;;;;;;16.27;59.00;102669.59;5135922;27;20370;-40
2021/05/29 08:41:10;;;;;;;7.45;5.30;;;;;;;16.39;58.33;102665.03;5136382;27;20043;-40
2021/05/29 08:43:36;;;;;;;9.20;4.35;;;;;;;16.33;58.27;102674.16;5135704;27;20031;-40
2021/05/29 08:46:01;;;;;;;8.23;4.75;;;;;;;16.48;57.94;102669.16;5135852;27;20454;-40
2021/05/29 08:48:27;;;;;;;5.13;4.60;;;;;;;16.45;54.93;102666.91;5136646;27;20030;-40
2021/05/29 08:53:36;;;;;;;3.70;3.08;;;;;;;16.72;54.23;102673.75;5136203;27;19918;-40
2021/05/29 08:56:02;;;;;;;3.17;2.43;;;;;;;16.71;50.20;102669.34;5135794;27;20120;-40
2021/05/29 08:58:27;;;;;;;4.70;3.50;;;;;;;16.98;54.79;102675.34;5136004;27;20608;-40
2021/05/29 09:00:53;;;;;;;4.18;2.60;;;;;;;17.01;51.68;102673.22;5135729;27;20023;-40
2021/05/29 09:03:19;;;;;;;4.30;3.13;;;;;;;17.12;52.72;102680.63;5134283;27;20049;-40
2021/05/29 09:05:52;;;;;;;;;;;;;;;17.38;53.35;102676.72;5136320;27;20057;-40
2021/05/29 09:08:23;;;;;;;4.63;3.50;;;;;;;17.24;54.37;102676.88;5135791;27;19921;-40
2021/05/29 09:10:54;;;;;;;6.43;4.38;;;;;;;17.19;53.20;102678.66;5135209;27;20069;-41
2021/05/29 09:13:21;;;;;;;5.85;4.50;;;;;;;17.27;52.29;102677.47;5135457;27;20027;-40
2021/05/29 09:16:03;;;;;;;4.80;3.72;;;;;;;17.15;51.15;102685.63;5134705;27;20458;-40
2021/05/29 09:18:35;;;;;;;5.35;4.00;;;;;;;17.16;52.00;102682.66;5135666;27;20027;-41
2021/05/29 09:21:30;;;;;;;5.80;4.05;;;;;;;17.26;52.31;102671.19;5135885;27;20027;-40
2021/05/29 09:24:13;;;;;;;6.03;4.20;;;;;;;17.44;53.16;102683.97;5135268;27;20360;-40
2021/05/29 09:26:51;;;;;;;5.07;3.85;;;;;;;17.43;51.33;102682.31;5135440;27;20062;-40
2021/05/29 09:29:21;;;;;;;5.95;3.70;;;;;;;17.75;51.81;102681.00;5135709;27;20019;-40
2021/05/29 09:31:57;;;;;;;5.13;4.05;;;;;;;17.85;51.64;102685.06;5135573;27;20058;-40
2021/05/29 09:34:38;;;;;;;5.53;4.93;;;;;;;17.92;52.04;102680.34;5135071;27;20110;-40
2021/05/29 09:37:05;;;;;;;5.22;4.72;;;;;;;17.86;49.91;102687.59;5134720;27;20031;-40
2021/05/29 09:39:31;;;;;;;5.63;4.07;;;;;;;18.17;49.70;102678.22;5135680;27;20019;-40
2021/05/29 09:42:00;;;;;;;8.05;5.07;;;;;;;18.19;51.66;102681.53;5135191;27;20045;-40
2021/05/29 09:44:29;;;;;;;6.40;4.85;;;;;;;18.25;49.71;102686.09;5134894;27;20057;-41
2021/05/29 09:46:57;;;;;;;4.75;4.18;;;;;;;18.37;49.22;102682.50;5134732;27;20019;-41
2021/05/29 09:49:26;;;;;;;5.50;4.47;;;;;;;18.55;48.81;102678.81;5135624;27;20152;-40
2021/05/29 09:51:51;;;;;;;5.72;4.35;;;;;;;18.63;48.79;102687.47;5134305;27;20483;-40
2021/05/29 09:54:16;;;;;;;5.90;3.90;;;;;;;18.81;47.88;102680.22;5135015;27;20030;-40
2021/05/29 09:56:44;;;;;;;3.05;2.75;;;;;;;18.86;46.37;102683.06;5134946;27;20420;-40
2021/05/29 09:59:19;;;;;;;6.68;3.13;;;;;;;18.95;47.24;102692.56;5134618;27;20023;-40
2021/05/29 10:01:54;;;;;;;5.13;3.40;;;;;;;19.06;46.77;102686.22;5135322;27;20034;-41
2021/05/29 10:07:06;;;;;;;5.00;3.55;;;;;;;19.15;48.07;102684.75;5134778;27;20035;-40
2021/05/29 10:09:32;;;;;;;4.85;3.45;;;;;;;18.67;47.47;102693.31;5134191;27;20070;-40
2021/05/29 10:12:01;;;;;;;4.05;3.30;;;;;;;18.72;47.87;102680.56;5134046;27;20497;-40
2021/05/29 10:14:28;;;;;;;7.18;3.58;;;;;;;18.97;47.96;102688.50;5134066;27;20019;-40
2021/05/29 10:16:54;;;;;;;4.88;3.55;;;;;;;19.05;47.12;102690.03;5134025;27;20495;-40
2021/05/29 10:19:21;;;;;;;5.78;4.00;;;;;;;19.09;45.77;102693.97;5134518;27;20031;-41
2021/05/29 10:21:51;;;;;;;5.22;4.00;;;;;;;19.34;49.68;102688.16;5134575;27;20459;-40
2021/05/29 10:24:17;;;;;;;5.72;4.35;;;;;;;19.32;46.55;102689.47;5133938;27;20030;-40
2021/05/29 10:26:43;;;;;;;5.95;4.00;;;;;;;19.46;46.33;102686.16;5134152;27;20485;-40
2021/05/29 10:29:09;;;;;;;6.63;4.07;;;;;;;19.51;48.03;102677.19;5133149;27;20391;-40
2021/05/29 10:31:37;;;;;;;;;;;;;;;19.74;47.32;102685.34;5134735;27;20123;-40
2021/05/29 10:34:06;;;;;;;6.88;4.20;;;;;;;19.43;44.92;102683.94;5133837;27;20001;-40
2021/05/29 10:36:54;;;;;;;6.82;4.72;;;;;;;19.26;46.70;102677.56;5135293;27;20054;-40
2021/05/29 10:39:24;;;;;;;5.93;4.05;;;;;;;18.94;47.09;102683.53;5140657;27;20382;-40
2021/05/29 10:41:52;;;;;;;5.32;4.10;;;;;;;18.55;48.32;102684.28;5141727;27;20019;-40
2021/05/29 10:44:26;;;;;;;4.80;3.70;;;;;;;18.91;48.22;102684.00;5140867;27;20142;-40
2021/05/29 10:47:15;;;;;;;5.28;4.43;;;;;;;19.30;47.90;102676.81;5140669;27;20034;-40
2021/05/29 10:49:47;;;;;;;4.80;3.65;;;;;;;19.37;46.96;102684.91;5140856;27;20019;-40
2021/05/29 10:52:31;;;;;;;6.00;4.63;;;;;;;19.53;48.43;102677.81;5141380;27;20030;-40
2021/05/29 10:55:23;;;;;;;5.47;4.40;;;;;;;19.36;48.76;102683.22;5141454;27;20097;-40
2021/05/29 10:57:49;;;;;;;5.32;4.82;;;;;;;19.15;47.66;102690.25;5139370;27;20067;-40
2021/05/29 11:00:33;;;;;;;;;;;;;;;19.36;47.56;102685.97;5141540;27;20034;-40
2021/05/29 11:03:17;;;;;;;5.97;4.55;;;;;;;19.24;48.39;102677.81;5140910;27;19980;-40
2021/05/29 11:05:47;;;;;;;5.50;4.57;;;;;;;19.10;47.44;102679.19;5141000;27;20051;-40
2021/05/29 11:08:46;;;;;;;5.45;4.55;;;;;;;19.40;48.20;102687.16;5140803;27;20031;-40
2021/05/29 11:14:22;;;;;;;11.07;5.13;;;;;;;18.71;49.05;102687.13;5140900;27;20039;-40
2021/05/29 11:16:53;;;;;;;6.53;5.00;;;;;;;18.80;49.51;102678.56;5140996;27;20374;-40
2021/05/29 11:19:30;;;;;;;7.68;5.28;;;;;;;18.82;50.02;102681.88;5140573;27;20027;-40
2021/05/29 11:22:07;;;;;;;5.45;4.95;;;;;;;19.38;49.60;102670.13;5140867;27;20019;-40
2021/05/29 11:24:41;;;;;;;6.47;4.57;;;;;;;19.94;49.16;102676.63;5140710;27;20412;-40
2021/05/29 11:27:09;;;;;;;4.90;4.38;;;;;;;20.14;46.66;102683.50;5131538;27;20559;-40
2021/05/29 11:30:16;;;;;;;7.45;4.68;;;;;;;19.74;46.36;102677.09;5135081;27;20093;-41
2021/05/29 11:35:23;;;;;;;4.43;3.83;;;;;;;19.18;48.12;102678.81;5140799;27;20035;-40
2021/05/29 11:40:46;;;;;;;5.00;3.60;;;;;;;19.78;46.07;102675.53;5140364;27;20038;-40
2021/05/29 11:43:13;;;;;;;6.22;3.80;;;;;;;19.89;44.87;102667.47;5140061;27;20052;-40
2021/05/29 11:45:40;;;;;;;7.80;3.72;;;;;;;20.06;44.99;102673.78;5140383;27;20555;-41
2021/05/29 11:48:06;;;;;;;5.22;3.65;;;;;;;20.24;45.57;102662.53;5139373;27;20027;-41
2021/05/29 11:50:32;;;;;;;6.65;4.07;;;;;;;20.18;44.95;102652.53;5128784;27;20023;-41
2021/05/29 11:52:58;;;;;;;4.05;3.40;;;;;;;20.19;44.92;102662.44;5116678;28;20050;-41
2021/05/29 11:55:23;;;;;;;;;;;;;;;20.26;45.26;102668.63;5117400;28;20028;-41